createdAt,value
2022-11-15T00:01:20.105Z,74.79
2022-11-15T00:03:46.624Z,74.71
2022-11-15T00:06:14.188Z,74.64
2022-11-15T00:08:40.825Z,74.80
2022-11-15T00:11:07.214Z,74.52
2022-11-15T00:13:34.101Z,75.06
2022-11-15T00:16:00.843Z,74.88
2022-11-15T00:18:28.230Z,74.96
2022-11-15T00:20:56.823Z,74.86
2022-11-15T00:23:24.423Z,74.68
2022-11-15T00:25:50.812Z,74.91
2022-11-15T00:28:17.306Z,74.51
2022-11-15T00:30:43.702Z,75.47
2022-11-15T00:33:10.136Z,75.22
2022-11-15T00:35:39.621Z,75.53
2022-11-15T00:38:07.034Z,75.20
2022-11-15T00:40:34.640Z,75.26
2022-11-15T00:43:02.240Z,75.48
2022-11-15T00:45:28.646Z,75.28
2022-11-15T00:47:55.040Z,75.54
2022-11-15T00:50:21.456Z,75.97
2022-11-15T00:52:47.847Z,75.94
2022-11-15T00:55:14.239Z,75.54
2022-11-15T00:57:40.748Z,75.90
2022-11-15T01:00:07.164Z,75.85
2022-11-15T01:02:33.551Z,75.69
2022-11-15T01:04:59.941Z,75.83
2022-11-15T01:07:26.446Z,76.12
2022-11-15T01:09:52.935Z,75.65
2022-11-15T01:12:19.342Z,75.98
2022-11-15T01:14:45.738Z,76.04
2022-11-15T01:17:12.129Z,76.26
2022-11-15T01:19:38.522Z,76.00
2022-11-15T01:22:04.913Z,76.53
2022-11-15T01:24:31.350Z,75.98
2022-11-15T01:26:57.837Z,76.17
2022-11-15T01:29:24.247Z,76.31
2022-11-15T01:31:50.658Z,76.21
2022-11-15T01:34:17.072Z,75.84
2022-11-15T01:36:43.478Z,76.33
2022-11-15T01:39:09.882Z,75.98
2022-11-15T01:41:36.299Z,75.95
2022-11-15T01:44:02.721Z,76.09
2022-11-15T01:46:29.127Z,76.12
2022-11-15T01:48:55.571Z,76.49
2022-11-15T01:51:22.014Z,76.46
2022-11-15T01:53:48.418Z,76.46
2022-11-15T01:56:14.814Z,76.55
2022-11-15T01:58:41.195Z,75.91
2022-11-15T02:01:07.665Z,76.08
2022-11-15T02:03:34.169Z,76.47
2022-11-15T02:06:00.707Z,76.26
2022-11-15T02:08:27.096Z,76.61
2022-11-15T02:10:53.493Z,76.21
2022-11-15T02:13:19.902Z,76.38
2022-11-15T02:15:46.276Z,76.64
2022-11-15T02:18:12.669Z,76.12
2022-11-15T02:20:39.118Z,76.77
2022-11-15T02:23:05.517Z,76.66
2022-11-15T02:25:31.911Z,76.33
2022-11-15T02:27:58.430Z,76.49
2022-11-15T02:30:24.842Z,76.64
2022-11-15T02:32:51.263Z,76.60
2022-11-15T02:35:17.693Z,76.79
2022-11-15T02:37:44.117Z,76.81
2022-11-15T02:40:10.530Z,76.67
2022-11-15T02:42:36.938Z,76.95
2022-11-15T02:45:03.367Z,77.08
2022-11-15T02:47:29.806Z,76.79
2022-11-15T02:49:56.233Z,76.84
2022-11-15T02:52:22.683Z,77.03
2022-11-15T02:54:49.084Z,77.58
2022-11-15T02:57:15.500Z,77.67
2022-11-15T02:59:41.912Z,77.30
2022-11-15T03:02:08.316Z,77.03
2022-11-15T03:04:34.839Z,77.21
2022-11-15T03:07:01.274Z,76.84
2022-11-15T03:09:27.760Z,77.10
2022-11-15T03:11:54.201Z,77.08
2022-11-15T03:14:20.620Z,77.07
2022-11-15T03:16:47.042Z,76.92
2022-11-15T03:19:13.467Z,77.50
2022-11-15T03:21:39.893Z,77.58
2022-11-15T03:24:06.314Z,77.07
2022-11-15T03:26:32.732Z,77.23
2022-11-15T03:28:59.173Z,77.64
2022-11-15T03:31:25.574Z,77.21
2022-11-15T03:33:51.983Z,77.25
2022-11-15T03:36:18.427Z,77.31
2022-11-15T03:38:44.864Z,77.09
2022-11-15T03:41:11.280Z,77.71
2022-11-15T03:43:37.694Z,77.12
2022-11-15T03:46:04.106Z,77.50
2022-11-15T03:48:30.520Z,77.27
2022-11-15T03:50:56.918Z,77.35
2022-11-15T03:53:23.433Z,77.65
2022-11-15T03:55:49.849Z,77.46
2022-11-15T03:58:16.254Z,77.72
2022-11-15T04:00:42.742Z,77.54
2022-11-15T04:03:09.201Z,77.29
2022-11-15T04:05:35.616Z,77.63
2022-11-15T04:08:02.058Z,77.21
2022-11-15T04:10:28.504Z,77.20
2022-11-15T04:12:54.928Z,77.87
2022-11-15T04:15:21.355Z,76.96
2022-11-15T04:17:47.764Z,77.08
2022-11-15T04:20:14.184Z,77.17
2022-11-15T04:22:40.574Z,77.50
2022-11-15T04:25:07.020Z,77.05
2022-11-15T04:27:33.435Z,77.63
2022-11-15T04:29:59.871Z,77.48
2022-11-15T04:32:26.314Z,77.29
2022-11-15T04:34:52.752Z,77.29
2022-11-15T04:37:19.145Z,77.77
2022-11-15T04:39:45.593Z,77.65
2022-11-15T04:42:12.006Z,77.76
2022-11-15T04:44:38.463Z,77.23
2022-11-15T04:47:04.873Z,77.55
2022-11-15T04:49:31.308Z,77.86
2022-11-15T04:51:57.730Z,77.77
2022-11-15T04:54:24.136Z,77.32
2022-11-15T04:56:50.578Z,77.69
2022-11-15T04:59:17.009Z,77.71
2022-11-15T05:01:45.115Z,77.85
2022-11-15T05:04:11.779Z,78.33
2022-11-15T05:06:38.189Z,78.25
2022-11-15T05:09:04.604Z,77.81
2022-11-15T05:11:31.056Z,77.86
2022-11-15T05:13:57.466Z,77.54
2022-11-15T05:16:23.891Z,77.60
2022-11-15T05:18:50.336Z,77.45
2022-11-15T05:21:16.738Z,77.24
2022-11-15T05:23:43.137Z,77.34
2022-11-15T05:26:09.763Z,77.26
2022-11-15T05:28:36.246Z,77.36
2022-11-15T05:31:02.652Z,77.25
2022-11-15T05:33:29.420Z,77.49
2022-11-15T05:35:56.031Z,77.46
2022-11-15T05:38:22.461Z,77.31
2022-11-15T05:40:48.894Z,77.25
2022-11-15T05:43:15.304Z,77.10
2022-11-15T05:45:41.754Z,77.96
2022-11-15T05:48:08.166Z,77.89
2022-11-15T05:50:34.609Z,77.74
2022-11-15T05:53:04.854Z,77.75
2022-11-15T05:55:31.839Z,77.69
2022-11-15T05:57:58.250Z,77.65
2022-11-15T06:00:24.659Z,77.28
2022-11-15T06:02:51.080Z,77.76
2022-11-15T06:05:17.524Z,78.10
2022-11-15T06:07:43.922Z,77.77
2022-11-15T06:10:10.349Z,78.22
2022-11-15T06:12:36.749Z,78.12
2022-11-15T06:15:03.153Z,77.79
2022-11-15T06:17:29.582Z,77.47
2022-11-15T06:19:55.990Z,77.31
2022-11-15T06:22:22.444Z,77.19
2022-11-15T06:24:48.861Z,77.77
2022-11-15T06:27:15.281Z,77.68
2022-11-15T06:29:41.698Z,77.55
2022-11-15T06:32:08.152Z,78.13
2022-11-15T06:34:34.570Z,78.23
2022-11-15T06:37:01.007Z,77.52
2022-11-15T06:39:27.405Z,77.82
2022-11-15T06:41:53.841Z,77.91
2022-11-15T06:44:20.248Z,78.37
2022-11-15T06:46:46.657Z,77.86
2022-11-15T06:49:13.094Z,77.84
2022-11-15T06:51:39.510Z,78.10
2022-11-15T06:54:05.960Z,78.17
2022-11-15T06:56:32.376Z,78.14
2022-11-15T06:58:58.790Z,77.73
2022-11-15T07:01:25.234Z,78.12
2022-11-15T07:03:51.686Z,77.72
2022-11-15T07:06:18.093Z,78.10
2022-11-15T07:08:44.534Z,77.49
2022-11-15T07:11:10.954Z,77.30
2022-11-15T07:13:37.368Z,77.68
2022-11-15T07:16:03.803Z,78.35
2022-11-15T07:18:30.210Z,78.39
2022-11-15T07:20:56.653Z,78.41
2022-11-15T07:23:23.075Z,77.87
2022-11-15T07:25:49.585Z,77.44
2022-11-15T07:28:16.287Z,78.38
2022-11-15T07:30:45.430Z,78.40
2022-11-15T07:33:12.008Z,78.79
2022-11-15T07:35:38.547Z,78.90
2022-11-15T07:38:04.946Z,78.59
2022-11-15T07:40:31.343Z,78.71
2022-11-15T07:42:57.765Z,78.15
2022-11-15T07:45:24.214Z,78.82
2022-11-15T07:47:50.620Z,78.79
2022-11-15T07:50:17.019Z,78.46
2022-11-15T07:52:43.442Z,78.34
2022-11-15T07:55:09.875Z,78.60
2022-11-15T07:57:36.289Z,78.12
2022-11-15T08:00:02.749Z,78.78
2022-11-15T08:02:30.609Z,78.07
2022-11-15T08:04:57.293Z,78.17
2022-11-15T08:07:24.198Z,78.14
2022-11-15T08:09:50.674Z,77.88
2022-11-15T08:12:17.118Z,78.46
2022-11-15T08:14:43.537Z,78.34
2022-11-15T08:17:09.959Z,78.21
2022-11-15T08:19:36.405Z,78.85
2022-11-15T08:22:02.803Z,78.64
2022-11-15T08:24:29.258Z,78.79
2022-11-15T08:26:55.702Z,78.74
2022-11-15T08:29:22.200Z,78.40
2022-11-15T08:31:48.601Z,78.44
2022-11-15T08:34:15.095Z,78.55
2022-11-15T08:36:45.870Z,79.08
2022-11-15T08:39:12.598Z,78.63
2022-11-15T08:41:39.012Z,78.58
2022-11-15T08:44:05.407Z,78.33
2022-11-15T08:46:31.814Z,78.43
2022-11-15T08:48:58.291Z,78.29
2022-11-15T08:51:24.707Z,78.01
2022-11-15T08:53:51.108Z,77.78
2022-11-15T08:56:17.530Z,77.96
2022-11-15T08:58:43.923Z,77.32
2022-11-15T09:01:12.020Z,77.56
2022-11-15T09:03:40.351Z,77.46
2022-11-15T09:06:06.770Z,77.47
2022-11-15T09:08:47.174Z,76.69
2022-11-15T09:11:14.426Z,77.41
2022-11-15T09:13:40.834Z,77.07
2022-11-15T09:16:07.230Z,76.28
2022-11-15T09:18:34.047Z,76.29
2022-11-15T09:21:00.750Z,76.66
2022-11-15T09:23:27.156Z,76.50
2022-11-15T09:25:53.561Z,76.78
2022-11-15T09:28:19.981Z,76.58
2022-11-15T09:30:46.413Z,76.46
2022-11-15T09:33:12.834Z,76.30
2022-11-15T09:35:40.001Z,76.98
2022-11-15T09:38:06.416Z,76.79
2022-11-15T09:40:32.814Z,75.90
2022-11-15T09:42:59.262Z,76.49
2022-11-15T09:45:25.681Z,76.52
2022-11-15T09:47:52.116Z,76.91
2022-11-15T09:50:18.512Z,76.64
2022-11-15T09:52:45.126Z,76.42
2022-11-15T09:55:12.151Z,76.90
2022-11-15T09:57:38.815Z,76.99
2022-11-15T10:00:30.685Z,76.64
2022-11-15T10:02:51.634Z,76.46
2022-11-15T10:05:18.059Z,76.73
2022-11-15T10:07:44.588Z,76.78
2022-11-15T10:10:10.992Z,76.88
2022-11-15T10:12:37.438Z,76.75
2022-11-15T10:15:03.894Z,76.42
2022-11-15T10:17:30.303Z,75.95
2022-11-15T10:20:00.801Z,76.14
2022-11-15T10:22:30.442Z,76.38
2022-11-15T10:24:56.878Z,76.33
2022-11-15T10:27:23.295Z,76.35
2022-11-15T10:29:49.716Z,75.95
2022-11-15T10:32:16.151Z,75.75
2022-11-15T10:34:42.568Z,75.76
2022-11-15T10:37:09.006Z,75.87
2022-11-15T10:39:35.416Z,75.67
2022-11-15T10:42:06.442Z,76.37
2022-11-15T10:44:36.294Z,76.37
2022-11-15T10:47:02.714Z,76.61
2022-11-15T10:49:29.108Z,76.55
2022-11-15T10:51:55.570Z,76.41
2022-11-15T10:54:22.122Z,76.93
2022-11-15T10:56:48.538Z,76.56
2022-11-15T10:59:14.978Z,76.52
2022-11-15T11:01:41.509Z,76.65
2022-11-15T11:04:07.954Z,76.79
2022-11-15T11:06:34.374Z,76.26
2022-11-15T11:09:00.833Z,75.92
2022-11-15T11:11:27.251Z,75.92
2022-11-15T11:13:53.663Z,75.88
2022-11-15T11:16:20.123Z,76.14
2022-11-15T11:18:46.554Z,76.35
2022-11-15T11:21:12.963Z,76.16
2022-11-15T11:23:39.392Z,76.27
2022-11-15T11:26:05.823Z,76.24
2022-11-15T11:28:32.533Z,76.34
2022-11-15T11:30:59.166Z,75.77
2022-11-15T11:33:25.547Z,75.95
2022-11-15T11:35:52.579Z,76.29
2022-11-15T11:38:18.980Z,76.32
2022-11-15T11:40:45.486Z,76.09
2022-11-15T11:43:11.891Z,76.00
2022-11-15T11:45:38.450Z,75.43
2022-11-15T11:48:05.139Z,76.38
2022-11-15T11:50:31.559Z,76.12
2022-11-15T11:53:02.508Z,75.84
2022-11-15T11:55:30.495Z,75.97
2022-11-15T11:57:56.929Z,76.17
2022-11-15T12:00:23.361Z,75.21
2022-11-15T12:02:49.867Z,75.39
2022-11-15T12:05:16.456Z,75.95
2022-11-15T12:07:42.909Z,75.04
2022-11-15T12:10:09.321Z,75.44
2022-11-15T12:12:35.705Z,75.53
2022-11-15T12:15:02.120Z,75.45
2022-11-15T12:17:28.555Z,75.41
2022-11-15T12:19:54.996Z,75.20
2022-11-15T12:22:21.418Z,75.00
2022-11-15T12:24:47.838Z,74.80
2022-11-15T12:27:14.287Z,74.54
2022-11-15T12:29:40.695Z,74.43
2022-11-15T12:32:07.097Z,74.78
2022-11-15T12:34:33.515Z,74.65
2022-11-15T12:36:59.949Z,74.82
2022-11-15T12:39:26.358Z,74.39
2022-11-15T12:41:52.908Z,74.41
2022-11-15T12:44:19.312Z,74.74
2022-11-15T12:46:45.717Z,74.74
2022-11-15T12:49:12.133Z,74.91
2022-11-15T12:51:38.548Z,74.87
2022-11-15T12:54:04.997Z,74.53
2022-11-15T12:56:31.386Z,74.81
2022-11-15T12:58:57.800Z,74.84
2022-11-15T13:01:24.359Z,74.75
2022-11-15T13:03:50.818Z,75.22
2022-11-15T13:06:17.260Z,74.86
2022-11-15T13:08:43.685Z,75.42
2022-11-15T13:11:10.126Z,74.93
2022-11-15T13:13:36.546Z,75.40
2022-11-15T13:16:02.943Z,74.94
2022-11-15T13:18:29.478Z,75.32
2022-11-15T13:21:02.005Z,74.82
2022-11-15T13:23:28.945Z,74.55
2022-11-15T13:25:55.357Z,74.54
2022-11-15T13:28:21.785Z,74.21
2022-11-15T13:30:48.216Z,74.58
2022-11-15T13:33:14.669Z,74.92
2022-11-15T13:35:41.095Z,75.19
2022-11-15T13:38:07.494Z,75.19
2022-11-15T13:40:33.911Z,74.70
2022-11-15T13:43:00.316Z,74.99
2022-11-15T13:45:26.744Z,74.35
2022-11-15T13:47:53.162Z,75.01
2022-11-15T13:50:20.188Z,74.11
2022-11-15T13:52:46.633Z,74.83
2022-11-15T13:55:13.145Z,74.65
2022-11-15T13:57:39.590Z,74.32
2022-11-15T14:00:06.007Z,74.42
2022-11-15T14:02:32.423Z,74.53
2022-11-15T14:04:58.846Z,74.06
2022-11-15T14:07:25.297Z,74.03
2022-11-15T14:09:51.768Z,74.13
2022-11-15T14:12:18.272Z,74.25
2022-11-15T14:14:44.705Z,74.40
2022-11-15T14:17:11.128Z,74.98
2022-11-15T14:19:37.550Z,74.99
2022-11-15T14:22:04.447Z,74.92
2022-11-15T14:24:30.961Z,74.21
2022-11-15T14:26:57.426Z,74.54
2022-11-15T14:29:23.887Z,74.23
2022-11-15T14:31:50.351Z,74.55
2022-11-15T14:34:16.847Z,74.02
2022-11-15T14:36:43.309Z,73.97
2022-11-15T14:39:09.697Z,73.58
2022-11-15T14:41:36.129Z,73.34
2022-11-15T14:44:02.724Z,73.95
2022-11-15T14:46:29.171Z,74.41
2022-11-15T14:48:55.613Z,74.27
2022-11-15T14:51:22.031Z,74.60
2022-11-15T14:53:48.455Z,75.08
2022-11-15T14:56:14.844Z,75.20
2022-11-15T14:58:41.249Z,74.99
2022-11-15T15:01:07.641Z,74.96
2022-11-15T15:03:34.056Z,74.80
2022-11-15T15:06:00.456Z,75.31
2022-11-15T15:08:29.028Z,75.03
2022-11-15T15:10:55.534Z,74.67
2022-11-15T15:13:21.980Z,74.81
2022-11-15T15:15:48.369Z,74.44
2022-11-15T15:18:14.834Z,74.56
2022-11-15T15:20:41.221Z,74.94
2022-11-15T15:23:07.640Z,74.80
2022-11-15T15:25:34.066Z,75.62
2022-11-15T15:28:00.516Z,75.01
2022-11-15T15:30:26.952Z,75.20
2022-11-15T15:32:53.367Z,75.78
2022-11-15T15:35:19.797Z,75.79
2022-11-15T15:37:46.230Z,75.91
2022-11-15T15:40:12.641Z,75.72
2022-11-15T15:42:39.077Z,76.09
2022-11-15T15:45:05.489Z,76.18
2022-11-15T15:47:31.905Z,75.95
2022-11-15T15:49:58.590Z,75.99
2022-11-15T15:52:25.012Z,75.92
2022-11-15T15:54:51.411Z,76.64
2022-11-15T15:57:17.839Z,76.21
2022-11-15T15:59:44.285Z,76.30
2022-11-15T16:02:10.724Z,75.94
2022-11-15T16:04:37.242Z,76.27
2022-11-15T16:07:03.689Z,76.33
2022-11-15T16:09:30.187Z,76.19
2022-11-15T16:11:56.603Z,75.84
2022-11-15T16:14:23.722Z,76.50
2022-11-15T16:16:53.618Z,76.68
2022-11-15T16:19:20.043Z,76.36
2022-11-15T16:21:46.467Z,75.93
2022-11-15T16:24:12.874Z,76.64
2022-11-15T16:26:39.328Z,76.23
2022-11-15T16:29:05.731Z,76.49
2022-11-15T16:31:32.118Z,76.38
2022-11-15T16:33:58.505Z,76.42
2022-11-15T16:36:29.919Z,76.25
2022-11-15T16:38:56.997Z,76.04
2022-11-15T16:41:23.405Z,75.58
2022-11-15T16:43:49.812Z,75.84
2022-11-15T16:46:16.226Z,75.91
2022-11-15T16:48:42.655Z,75.16
2022-11-15T16:51:09.060Z,75.47
2022-11-15T16:53:35.459Z,75.84
2022-11-15T16:56:02.070Z,76.09
2022-11-15T16:58:28.481Z,75.99
2022-11-15T17:00:54.955Z,75.70
2022-11-15T17:03:21.438Z,75.79
2022-11-15T17:05:47.855Z,75.95
2022-11-15T17:08:14.275Z,75.59
2022-11-15T17:10:40.703Z,75.84
2022-11-15T17:13:07.097Z,75.68
2022-11-15T17:15:33.492Z,75.91
2022-11-15T17:17:59.930Z,75.94
2022-11-15T17:20:26.348Z,75.83
2022-11-15T17:22:52.771Z,75.87
2022-11-15T17:25:19.194Z,76.33
2022-11-15T17:27:45.599Z,76.14
2022-11-15T17:30:12.014Z,76.49
2022-11-15T17:32:38.451Z,75.99
2022-11-15T17:35:04.882Z,76.12
2022-11-15T17:37:31.296Z,76.89
2022-11-15T17:39:57.739Z,76.57
2022-11-15T17:42:24.162Z,76.78
2022-11-15T17:44:50.581Z,76.72
2022-11-15T17:47:16.983Z,76.68
2022-11-15T17:49:43.404Z,77.26
2022-11-15T17:52:09.823Z,77.52
2022-11-15T17:54:36.229Z,77.42
2022-11-15T17:57:02.674Z,77.12
2022-11-15T17:59:29.082Z,77.65
2022-11-15T18:01:55.504Z,77.48
2022-11-15T18:04:21.906Z,77.45
2022-11-15T18:06:48.416Z,76.89
2022-11-15T18:09:14.900Z,77.22
2022-11-15T18:11:41.518Z,77.22
2022-11-15T18:14:08.045Z,77.31
2022-11-15T18:16:34.496Z,77.74
2022-11-15T18:19:00.931Z,77.89
2022-11-15T18:21:27.364Z,77.70
2022-11-15T18:23:53.789Z,77.00
2022-11-15T18:26:24.377Z,77.72
2022-11-15T18:28:53.111Z,77.42
2022-11-15T18:31:19.529Z,77.84
2022-11-15T18:33:45.959Z,77.72
2022-11-15T18:36:12.430Z,77.90
2022-11-15T18:38:38.855Z,77.67
2022-11-15T18:41:05.274Z,77.34
2022-11-15T18:43:31.972Z,77.46
2022-11-15T18:45:58.596Z,77.90
2022-11-15T18:48:25.088Z,77.28
2022-11-15T18:50:54.002Z,77.43
2022-11-15T18:53:20.592Z,77.20
2022-11-15T18:55:47.017Z,77.58
2022-11-15T18:58:13.438Z,77.34
2022-11-15T19:00:39.893Z,76.83
2022-11-15T19:03:06.396Z,77.33
2022-11-15T19:05:32.805Z,77.26
2022-11-15T19:07:59.237Z,77.88
2022-11-15T19:10:25.632Z,77.61
2022-11-15T19:12:52.077Z,77.32
2022-11-15T19:15:19.225Z,77.63
2022-11-15T19:17:45.914Z,77.55
2022-11-15T19:20:12.366Z,77.00
2022-11-15T19:22:38.817Z,77.12
2022-11-15T19:25:05.283Z,77.18
2022-11-15T19:27:35.612Z,77.05
2022-11-15T19:30:04.388Z,76.99
2022-11-15T19:32:30.815Z,77.22
2022-11-15T19:34:57.254Z,77.16
2022-11-15T19:37:23.674Z,77.10
2022-11-15T19:39:50.120Z,76.96
2022-11-15T19:42:16.536Z,76.77
2022-11-15T19:44:42.951Z,77.58
2022-11-15T19:47:09.458Z,76.50
2022-11-15T19:49:35.894Z,77.15
2022-11-15T19:52:02.323Z,77.43
2022-11-15T19:54:29.108Z,77.66
2022-11-15T19:56:55.529Z,77.00
2022-11-15T19:59:21.938Z,77.06
2022-11-15T20:01:48.391Z,77.12
2022-11-15T20:04:14.833Z,77.28
2022-11-15T20:06:41.279Z,77.00
2022-11-15T20:09:07.742Z,77.06
2022-11-15T20:11:34.174Z,77.92
2022-11-15T20:14:00.579Z,77.61
2022-11-15T20:16:26.979Z,77.50
2022-11-15T20:18:53.455Z,77.66
2022-11-15T20:21:19.874Z,77.36
2022-11-15T20:23:47.263Z,77.16
2022-11-15T20:26:13.735Z,77.66
2022-11-15T20:28:40.180Z,77.43
2022-11-15T20:31:06.594Z,77.90
2022-11-15T20:33:33.074Z,77.60
2022-11-15T20:35:59.477Z,77.86
2022-11-15T20:38:25.888Z,77.94
2022-11-15T20:40:57.438Z,78.48
2022-11-15T20:43:26.361Z,78.77
2022-11-15T20:45:52.798Z,78.45
2022-11-15T20:48:19.238Z,78.55
2022-11-15T20:50:45.678Z,77.95
2022-11-15T20:53:12.107Z,77.47
2022-11-15T20:55:38.527Z,77.93
2022-11-15T20:58:04.933Z,78.17
2022-11-15T21:00:31.374Z,77.37
2022-11-15T21:02:57.787Z,78.19
2022-11-15T21:05:24.270Z,77.68
2022-11-15T21:07:50.713Z,77.65
2022-11-15T21:10:17.121Z,78.08
2022-11-15T21:12:43.539Z,78.21
2022-11-15T21:15:09.980Z,78.27
2022-11-15T21:17:36.394Z,78.04
2022-11-15T21:20:02.854Z,78.46
2022-11-15T21:22:29.277Z,78.14
2022-11-15T21:24:55.723Z,77.83
2022-11-15T21:27:22.162Z,78.74
2022-11-15T21:29:48.604Z,78.46
2022-11-15T21:32:15.018Z,78.53
2022-11-15T21:34:41.481Z,78.11
2022-11-15T21:37:07.893Z,78.52
2022-11-15T21:39:34.303Z,78.34
2022-11-15T21:42:00.744Z,78.84
2022-11-15T21:44:27.167Z,78.72
2022-11-15T21:46:53.609Z,78.68
2022-11-15T21:49:20.032Z,78.20
2022-11-15T21:51:46.440Z,77.98
2022-11-15T21:54:12.911Z,78.16
2022-11-15T21:56:39.313Z,78.12
2022-11-15T21:59:05.724Z,78.09
2022-11-15T22:01:32.206Z,78.85
2022-11-15T22:03:58.663Z,78.59
2022-11-15T22:06:25.072Z,78.82
2022-11-15T22:08:51.509Z,78.19
2022-11-15T22:11:17.922Z,78.69
2022-11-15T22:13:44.335Z,78.21
2022-11-15T22:16:10.769Z,78.07
2022-11-15T22:18:37.668Z,78.23
2022-11-15T22:21:04.527Z,78.42
2022-11-15T22:23:30.946Z,78.40
2022-11-15T22:25:58.038Z,78.52
2022-11-15T22:28:24.455Z,78.40
2022-11-15T22:30:50.869Z,77.76
2022-11-15T22:33:17.288Z,77.61
2022-11-15T22:35:43.720Z,78.50
2022-11-15T22:38:10.164Z,78.89
2022-11-15T22:40:36.575Z,79.11
2022-11-15T22:43:02.976Z,79.38
2022-11-15T22:45:29.399Z,79.07
2022-11-15T22:47:55.845Z,78.77
2022-11-15T22:50:22.252Z,79.26
2022-11-15T22:52:48.662Z,78.95
2022-11-15T22:55:15.076Z,78.81
2022-11-15T22:57:41.500Z,79.16
2022-11-15T23:00:07.916Z,78.89
2022-11-15T23:02:34.341Z,79.13
2022-11-15T23:05:00.777Z,78.67
2022-11-15T23:07:27.299Z,78.85
2022-11-15T23:09:53.776Z,79.65
2022-11-15T23:12:20.231Z,79.66
2022-11-15T23:14:46.651Z,79.20
2022-11-15T23:17:13.082Z,79.83
2022-11-15T23:19:39.508Z,80.22
2022-11-15T23:22:05.938Z,80.86
2022-11-15T23:24:32.419Z,81.48
2022-11-15T23:26:58.839Z,81.74
2022-11-15T23:29:25.284Z,81.23
2022-11-15T23:32:01.119Z,81.24
2022-11-15T23:34:28.661Z,81.94
2022-11-15T23:36:55.088Z,82.21
2022-11-15T23:39:21.515Z,82.57
2022-11-15T23:41:47.961Z,80.87
2022-11-15T23:44:14.381Z,81.22
2022-11-15T23:46:40.885Z,81.94
2022-11-15T23:49:07.319Z,82.88
2022-11-15T23:51:33.741Z,83.02
2022-11-15T23:54:00.186Z,82.41
2022-11-15T23:56:26.618Z,82.47
2022-11-15T23:58:53.025Z,82.56
